createdAt,value
2023-05-17T00:00:59.266Z,962.49
2023-05-17T00:01:59.380Z,962.50
2023-05-17T00:02:59.288Z,962.50
2023-05-17T00:03:59.186Z,962.49
2023-05-17T00:04:59.346Z,962.51
2023-05-17T00:05:59.188Z,962.52
2023-05-17T00:06:59.094Z,962.51
2023-05-17T00:07:59.073Z,962.53
2023-05-17T00:08:59.039Z,962.51
2023-05-17T00:09:59.011Z,962.50
2023-05-17T00:10:58.985Z,962.54
2023-05-17T00:11:58.961Z,962.50
2023-05-17T00:12:58.923Z,962.52
2023-05-17T00:13:58.900Z,962.51
2023-05-17T00:14:58.871Z,962.48
2023-05-17T00:15:58.853Z,962.50
2023-05-17T00:16:58.905Z,962.48
2023-05-17T00:17:58.942Z,962.49
2023-05-17T00:18:58.844Z,962.49
2023-05-17T00:19:58.748Z,962.49
2023-05-17T00:20:58.736Z,962.50
2023-05-17T00:21:58.676Z,962.50
2023-05-17T00:22:58.698Z,962.49
2023-05-17T00:23:58.627Z,962.49
2023-05-17T00:24:58.634Z,962.53
2023-05-17T00:25:58.565Z,962.50
2023-05-17T00:26:58.531Z,962.50
2023-05-17T00:27:58.512Z,962.52
2023-05-17T00:28:58.482Z,962.53
2023-05-17T00:29:58.446Z,962.49
2023-05-17T00:30:58.423Z,962.50
2023-05-17T00:31:58.389Z,962.48
2023-05-17T00:32:58.377Z,962.44
2023-05-17T00:33:58.474Z,962.44
2023-05-17T00:34:58.413Z,962.50
2023-05-17T00:35:58.278Z,962.47
2023-05-17T00:36:58.256Z,962.43
2023-05-17T00:37:58.225Z,962.41
2023-05-17T00:38:58.189Z,962.45
2023-05-17T00:39:58.168Z,962.41
2023-05-17T00:40:58.135Z,962.43
2023-05-17T00:41:58.110Z,962.44
2023-05-17T00:42:58.079Z,962.43
2023-05-17T00:43:58.056Z,962.45
2023-05-17T00:44:58.024Z,962.44
2023-05-17T00:45:57.999Z,962.40
2023-05-17T00:46:58.023Z,962.42
2023-05-17T00:47:58.124Z,962.43
2023-05-17T00:48:57.920Z,962.42
2023-05-17T00:49:57.973Z,962.41
2023-05-17T00:50:57.851Z,962.38
2023-05-17T00:51:57.823Z,962.41
2023-05-17T00:52:57.794Z,962.41
2023-05-17T00:53:57.771Z,962.39
2023-05-17T00:54:57.757Z,962.36
2023-05-17T00:55:57.713Z,962.37
2023-05-17T00:56:57.688Z,962.40
2023-05-17T00:57:57.663Z,962.38
2023-05-17T00:58:57.629Z,962.40
2023-05-17T00:59:57.599Z,962.43
2023-05-17T01:00:57.568Z,962.41
2023-05-17T01:01:57.548Z,962.40
2023-05-17T01:02:57.594Z,962.41
2023-05-17T01:03:57.576Z,962.42
2023-05-17T01:04:57.513Z,962.39
2023-05-17T01:05:57.531Z,962.41
2023-05-17T01:06:57.402Z,962.42
2023-05-17T01:07:57.372Z,962.42
2023-05-17T01:08:57.340Z,962.42
2023-05-17T01:09:57.312Z,962.43
2023-05-17T01:10:57.297Z,962.46
2023-05-17T01:11:57.260Z,962.48
2023-05-17T01:12:57.231Z,962.49
2023-05-17T01:13:57.204Z,962.44
2023-05-17T01:14:57.175Z,962.51
2023-05-17T01:15:57.145Z,962.50
2023-05-17T01:16:57.114Z,962.48
2023-05-17T01:17:57.129Z,962.52
2023-05-17T01:18:57.118Z,962.54
2023-05-17T01:19:57.341Z,962.54
2023-05-17T01:20:57.000Z,962.52
2023-05-17T01:21:57.089Z,962.50
2023-05-17T01:22:56.948Z,962.52
2023-05-17T01:23:56.920Z,962.54
2023-05-17T01:24:56.886Z,962.52
2023-05-17T01:25:56.860Z,962.53
2023-05-17T01:26:56.831Z,962.50
2023-05-17T01:27:56.803Z,962.55
2023-05-17T01:28:56.774Z,962.55
2023-05-17T01:29:56.752Z,962.55
2023-05-17T01:30:56.718Z,962.53
2023-05-17T01:31:56.691Z,962.58
2023-05-17T01:32:56.708Z,962.61
2023-05-17T01:33:56.668Z,962.58
2023-05-17T01:34:56.606Z,962.59
2023-05-17T01:35:56.576Z,962.59
2023-05-17T01:36:56.546Z,962.60
2023-05-17T01:37:56.536Z,962.62
2023-05-17T01:38:56.490Z,962.60
2023-05-17T01:39:56.462Z,962.56
2023-05-17T01:40:56.442Z,962.60
2023-05-17T01:41:56.404Z,962.61
2023-05-17T01:42:56.378Z,962.62
2023-05-17T01:43:56.355Z,962.60
2023-05-17T01:44:56.325Z,962.61
2023-05-17T01:45:56.289Z,962.57
2023-05-17T01:46:56.260Z,962.58
2023-05-17T01:47:56.322Z,962.54
2023-05-17T01:48:56.376Z,962.62
2023-05-17T01:49:56.184Z,962.61
2023-05-17T01:50:56.154Z,962.58
2023-05-17T01:51:56.121Z,962.58
2023-05-17T01:52:56.102Z,962.55
2023-05-17T01:53:56.202Z,962.56
2023-05-17T01:54:56.037Z,962.54
2023-05-17T01:55:56.014Z,962.57
2023-05-17T01:56:55.980Z,962.59
2023-05-17T01:57:55.949Z,962.54
2023-05-17T01:58:55.926Z,962.58
2023-05-17T01:59:55.889Z,962.56
2023-05-17T02:00:55.895Z,962.56
2023-05-17T02:01:55.835Z,962.60
2023-05-17T02:02:55.863Z,962.55
2023-05-17T02:03:55.819Z,962.55
2023-05-17T02:04:55.771Z,962.58
2023-05-17T02:05:55.722Z,962.57
2023-05-17T02:06:55.695Z,962.56
2023-05-17T02:07:55.672Z,962.59
2023-05-17T02:08:55.645Z,962.56
2023-05-17T02:09:55.753Z,962.56
2023-05-17T02:10:55.608Z,962.61
2023-05-17T02:11:55.551Z,962.59
2023-05-17T02:12:55.522Z,962.60
2023-05-17T02:13:55.496Z,962.65
2023-05-17T02:14:55.470Z,962.62
2023-05-17T02:15:55.457Z,962.63
2023-05-17T02:16:55.415Z,962.63
2023-05-17T02:17:55.499Z,962.64
2023-05-17T02:18:55.391Z,962.67
2023-05-17T02:19:55.332Z,962.62
2023-05-17T02:20:55.301Z,962.61
2023-05-17T02:21:55.269Z,962.60
2023-05-17T02:22:55.243Z,962.58
2023-05-17T02:23:55.213Z,962.58
2023-05-17T02:24:55.185Z,962.54
2023-05-17T02:25:55.368Z,962.54
2023-05-17T02:26:55.129Z,962.55
2023-05-17T02:27:55.100Z,962.55
2023-05-17T02:28:55.074Z,962.52
2023-05-17T02:29:55.043Z,962.56
2023-05-17T02:30:55.039Z,962.53
2023-05-17T02:31:54.988Z,962.55
2023-05-17T02:32:55.019Z,962.54
2023-05-17T02:33:55.146Z,962.53
2023-05-17T02:34:54.900Z,962.54
2023-05-17T02:35:54.871Z,962.58
2023-05-17T02:36:54.841Z,962.57
2023-05-17T02:37:54.822Z,962.52
2023-05-17T02:38:54.787Z,962.53
2023-05-17T02:39:54.759Z,962.52
2023-05-17T02:40:54.749Z,962.50
2023-05-17T02:41:54.853Z,962.51
2023-05-17T02:42:54.674Z,962.49
2023-05-17T02:43:54.650Z,962.50
2023-05-17T02:44:54.625Z,962.46
2023-05-17T02:45:54.589Z,962.45
2023-05-17T02:46:54.631Z,962.46
2023-05-17T02:47:54.604Z,962.47
2023-05-17T02:48:54.502Z,962.41
2023-05-17T02:49:54.466Z,962.45
2023-05-17T02:50:54.450Z,962.40
2023-05-17T02:51:54.413Z,962.42
2023-05-17T02:52:54.384Z,962.44
2023-05-17T02:53:54.367Z,962.46
2023-05-17T02:54:54.335Z,962.43
2023-05-17T02:55:54.298Z,962.46
2023-05-17T02:56:54.269Z,962.46
2023-05-17T02:57:54.404Z,962.50
2023-05-17T02:58:54.210Z,962.48
2023-05-17T02:59:54.194Z,962.46
2023-05-17T03:00:54.156Z,962.48
2023-05-17T03:01:54.121Z,962.48
2023-05-17T03:02:54.170Z,962.51
2023-05-17T03:03:54.157Z,962.52
2023-05-17T03:04:54.095Z,962.49
2023-05-17T03:05:54.012Z,962.51
2023-05-17T03:06:53.983Z,962.48
2023-05-17T03:07:53.955Z,962.54
2023-05-17T03:08:53.931Z,962.56
2023-05-17T03:09:53.895Z,962.54
2023-05-17T03:10:53.867Z,962.55
2023-05-17T03:11:53.840Z,962.55
2023-05-17T03:12:53.810Z,962.60
2023-05-17T03:13:53.806Z,962.64
2023-05-17T03:14:53.753Z,962.67
2023-05-17T03:15:53.726Z,962.68
2023-05-17T03:16:53.696Z,962.68
2023-05-17T03:17:53.724Z,962.69
2023-05-17T03:18:53.713Z,962.71
2023-05-17T03:19:53.695Z,962.72
2023-05-17T03:20:53.579Z,962.74
2023-05-17T03:21:53.550Z,962.76
2023-05-17T03:22:53.520Z,962.79
2023-05-17T03:23:53.493Z,962.84
2023-05-17T03:24:53.466Z,962.81
2023-05-17T03:25:53.435Z,962.76
2023-05-17T03:26:53.407Z,962.84
2023-05-17T03:27:53.411Z,962.83
2023-05-17T03:28:53.353Z,962.84
2023-05-17T03:29:53.486Z,962.83
2023-05-17T03:30:53.316Z,962.85
2023-05-17T03:31:53.267Z,962.85
2023-05-17T03:32:53.340Z,962.91
2023-05-17T03:33:53.361Z,962.95
2023-05-17T03:34:53.186Z,962.94
2023-05-17T03:35:53.146Z,962.91
2023-05-17T03:36:53.121Z,962.93
2023-05-17T03:37:53.090Z,962.89
2023-05-17T03:38:53.086Z,962.92
2023-05-17T03:39:53.034Z,962.93
2023-05-17T03:40:53.007Z,962.94
2023-05-17T03:41:52.973Z,962.92
2023-05-17T03:42:52.949Z,962.91
2023-05-17T03:43:52.919Z,962.98
2023-05-17T03:44:52.888Z,962.96
2023-05-17T03:45:52.954Z,962.99
2023-05-17T03:46:52.828Z,962.98
2023-05-17T03:47:52.856Z,962.91
2023-05-17T03:48:52.801Z,962.99
2023-05-17T03:49:52.750Z,962.96
2023-05-17T03:50:52.717Z,962.96
2023-05-17T03:51:52.688Z,962.97
2023-05-17T03:52:52.660Z,963.00
2023-05-17T03:53:52.648Z,963.03
2023-05-17T03:54:52.628Z,963.03
2023-05-17T03:55:52.574Z,963.02
2023-05-17T03:56:52.545Z,963.06
2023-05-17T03:57:52.519Z,963.03
2023-05-17T03:58:52.488Z,963.01
2023-05-17T03:59:52.456Z,963.00
2023-05-17T04:00:52.442Z,963.03
2023-05-17T04:01:52.511Z,963.02
2023-05-17T04:02:52.438Z,963.01
2023-05-17T04:03:52.385Z,963.04
2023-05-17T04:04:52.359Z,963.03
2023-05-17T04:05:52.313Z,963.06
2023-05-17T04:06:52.259Z,963.02
2023-05-17T04:07:52.233Z,963.03
2023-05-17T04:08:52.201Z,963.05
2023-05-17T04:09:52.172Z,963.01
2023-05-17T04:10:52.145Z,963.04
2023-05-17T04:11:52.115Z,963.08
2023-05-17T04:12:52.086Z,963.04
2023-05-17T04:13:52.058Z,963.02
2023-05-17T04:14:52.031Z,963.03
2023-05-17T04:15:52.006Z,963.03
2023-05-17T04:16:51.985Z,963.04
2023-05-17T04:17:52.107Z,963.02
2023-05-17T04:18:51.977Z,963.01
2023-05-17T04:19:51.967Z,963.01
2023-05-17T04:20:51.857Z,963.04
2023-05-17T04:21:51.830Z,963.03
2023-05-17T04:22:51.804Z,963.05
2023-05-17T04:23:51.776Z,963.08
2023-05-17T04:24:51.750Z,963.04
2023-05-17T04:25:51.712Z,963.13
2023-05-17T04:26:51.687Z,963.11
2023-05-17T04:27:51.658Z,963.15
2023-05-17T04:28:51.633Z,963.15
2023-05-17T04:29:51.599Z,963.09
2023-05-17T04:30:51.582Z,963.12
2023-05-17T04:31:51.542Z,963.08
2023-05-17T04:32:51.621Z,963.12
2023-05-17T04:33:51.646Z,963.16
2023-05-17T04:34:51.457Z,963.14
2023-05-17T04:35:51.434Z,963.11
2023-05-17T04:36:51.401Z,963.13
2023-05-17T04:37:51.379Z,963.16
2023-05-17T04:38:51.340Z,963.15
2023-05-17T04:39:51.312Z,963.16
2023-05-17T04:40:51.282Z,963.20
2023-05-17T04:41:51.257Z,963.22
2023-05-17T04:42:51.230Z,963.18
2023-05-17T04:43:51.199Z,963.23
2023-05-17T04:44:51.175Z,963.25
2023-05-17T04:45:51.141Z,963.24
2023-05-17T04:46:51.113Z,963.27
2023-05-17T04:47:51.175Z,963.28
2023-05-17T04:48:51.213Z,963.28
2023-05-17T04:49:51.177Z,963.26
2023-05-17T04:50:51.006Z,963.28
2023-05-17T04:51:50.972Z,963.34
2023-05-17T04:52:50.944Z,963.30
2023-05-17T04:53:50.913Z,963.34
2023-05-17T04:54:50.887Z,963.35
2023-05-17T04:55:50.857Z,963.30
2023-05-17T04:56:50.827Z,963.31
2023-05-17T04:57:50.814Z,963.31
2023-05-17T04:58:52.722Z,963.31
2023-05-17T04:59:50.748Z,963.34
2023-05-17T05:00:50.718Z,963.30
2023-05-17T05:01:50.682Z,963.30
2023-05-17T05:02:50.699Z,963.33
2023-05-17T05:03:50.694Z,963.39
2023-05-17T05:04:50.612Z,963.33
2023-05-17T05:05:50.660Z,963.37
2023-05-17T05:06:50.544Z,963.38
2023-05-17T05:07:50.510Z,963.36
2023-05-17T05:08:50.488Z,963.39
2023-05-17T05:09:50.472Z,963.43
2023-05-17T05:10:50.429Z,963.45
2023-05-17T05:11:50.401Z,963.47
2023-05-17T05:12:50.370Z,963.43
2023-05-17T05:13:50.345Z,963.44
2023-05-17T05:14:50.317Z,963.43
2023-05-17T05:15:50.289Z,963.40
2023-05-17T05:16:50.260Z,963.44
2023-05-17T05:17:50.268Z,963.38
2023-05-17T05:18:50.411Z,963.41
2023-05-17T05:19:50.202Z,963.42
2023-05-17T05:20:50.142Z,963.44
2023-05-17T05:21:50.147Z,963.45
2023-05-17T05:22:50.086Z,963.47
2023-05-17T05:23:50.061Z,963.50
2023-05-17T05:24:50.033Z,963.48
2023-05-17T05:25:50.000Z,963.51
2023-05-17T05:26:49.973Z,963.49
2023-05-17T05:27:49.943Z,963.54
2023-05-17T05:28:49.934Z,963.51
2023-05-17T05:29:49.896Z,963.50
2023-05-17T05:30:49.865Z,963.53
2023-05-17T05:31:49.834Z,963.48
2023-05-17T05:32:49.849Z,963.49
2023-05-17T05:33:49.800Z,963.46
2023-05-17T05:34:49.748Z,963.51
2023-05-17T05:35:49.717Z,963.52
2023-05-17T05:36:49.688Z,963.55
2023-05-17T05:37:49.825Z,963.49
2023-05-17T05:38:49.631Z,963.52
2023-05-17T05:39:49.603Z,963.56
2023-05-17T05:40:49.575Z,963.52
2023-05-17T05:41:49.575Z,963.53
2023-05-17T05:42:49.530Z,963.56
2023-05-17T05:43:49.489Z,963.58
2023-05-17T05:44:49.465Z,963.62
2023-05-17T05:45:49.437Z,963.61
2023-05-17T05:46:49.403Z,963.52
2023-05-17T05:47:49.536Z,963.55
2023-05-17T05:48:49.412Z,963.56
2023-05-17T05:49:49.325Z,963.61
2023-05-17T05:50:49.308Z,963.61
2023-05-17T05:51:49.269Z,963.58
2023-05-17T05:52:49.238Z,963.62
2023-05-17T05:53:49.242Z,963.58
2023-05-17T05:54:49.190Z,963.54
2023-05-17T05:55:49.152Z,963.58
2023-05-17T05:56:49.127Z,963.62
2023-05-17T05:57:49.098Z,963.63
2023-05-17T05:58:49.071Z,963.65
2023-05-17T05:59:49.040Z,963.65
2023-05-17T06:00:49.016Z,963.67
2023-05-17T06:01:49.000Z,963.68
2023-05-17T06:02:48.977Z,963.74
2023-05-17T06:03:48.941Z,963.74
2023-05-17T06:04:48.903Z,963.71
2023-05-17T06:05:49.024Z,963.69
2023-05-17T06:06:49.001Z,963.74
2023-05-17T06:07:48.824Z,963.70
2023-05-17T06:08:48.792Z,963.74
2023-05-17T06:09:48.797Z,963.72
2023-05-17T06:10:48.746Z,963.75
2023-05-17T06:11:48.709Z,963.79
2023-05-17T06:12:48.678Z,963.77
2023-05-17T06:13:48.661Z,963.79
2023-05-17T06:14:48.624Z,963.80
2023-05-17T06:15:48.598Z,963.82
2023-05-17T06:16:48.585Z,963.81
2023-05-17T06:17:48.603Z,963.85
2023-05-17T06:18:51.111Z,963.86
2023-05-17T06:19:48.505Z,963.85
2023-05-17T06:20:48.464Z,963.81
2023-05-17T06:21:48.436Z,963.86
2023-05-17T06:22:48.404Z,963.86
2023-05-17T06:23:48.377Z,963.90
2023-05-17T06:24:48.352Z,963.95
2023-05-17T06:25:48.411Z,963.90
2023-05-17T06:26:48.294Z,963.92
2023-05-17T06:27:48.275Z,963.91
2023-05-17T06:28:48.237Z,963.95
2023-05-17T06:29:48.210Z,963.94
2023-05-17T06:30:48.182Z,963.95
2023-05-17T06:31:48.154Z,963.95
2023-05-17T06:32:48.213Z,963.99
2023-05-17T06:33:48.141Z,963.98
2023-05-17T06:34:48.074Z,963.97
2023-05-17T06:36:48.013Z,963.98
2023-05-17T06:37:47.987Z,963.98
2023-05-17T06:38:47.956Z,963.99
2023-05-17T06:39:55.477Z,963.98
2023-05-17T06:40:47.902Z,963.98
2023-05-17T06:41:47.966Z,963.98
2023-05-17T06:42:47.862Z,964.01
2023-05-17T06:43:47.825Z,964.01
2023-05-17T06:44:47.791Z,964.00
2023-05-17T06:45:47.767Z,964.00
2023-05-17T06:46:47.742Z,964.02
2023-05-17T06:47:47.750Z,964.02
2023-05-17T06:48:50.862Z,964.01
2023-05-17T06:49:47.655Z,964.10
2023-05-17T06:50:47.627Z,964.07
2023-05-17T06:51:47.602Z,964.10
2023-05-17T06:52:47.571Z,964.13
2023-05-17T06:53:47.548Z,964.08
2023-05-17T06:54:47.518Z,964.09
2023-05-17T06:55:47.490Z,964.08
2023-05-17T06:56:47.460Z,964.18
2023-05-17T06:57:47.541Z,964.15
2023-05-17T06:58:47.405Z,964.14
2023-05-17T06:59:47.379Z,964.10
2023-05-17T07:00:47.354Z,964.19
2023-05-17T07:01:47.320Z,964.15
2023-05-17T07:02:47.371Z,964.16
2023-05-17T07:03:47.338Z,964.21
2023-05-17T07:04:47.285Z,964.18
2023-05-17T07:05:47.211Z,964.18
2023-05-17T07:06:47.192Z,964.24
2023-05-17T07:07:47.154Z,964.19
2023-05-17T07:08:47.132Z,964.21
2023-05-17T07:09:47.102Z,964.26
2023-05-17T07:10:47.071Z,964.22
2023-05-17T07:11:47.049Z,964.20
2023-05-17T07:12:47.019Z,964.20
2023-05-17T07:13:47.306Z,964.25
2023-05-17T07:14:46.965Z,964.28
2023-05-17T07:15:46.936Z,964.32
2023-05-17T07:16:46.907Z,964.27
2023-05-17T07:17:46.936Z,964.22
2023-05-17T07:18:46.928Z,964.21
2023-05-17T07:19:46.932Z,964.22
2023-05-17T07:20:46.796Z,964.25
2023-05-17T07:21:46.779Z,964.34
2023-05-17T07:22:46.743Z,964.29
2023-05-17T07:23:46.722Z,964.35
2023-05-17T07:24:46.706Z,964.29
2023-05-17T07:25:46.711Z,964.38
2023-05-17T07:26:46.643Z,964.37
2023-05-17T07:27:46.607Z,964.31
2023-05-17T07:28:46.586Z,964.40
2023-05-17T07:29:46.689Z,964.32
2023-05-17T07:30:46.526Z,964.30
2023-05-17T07:31:46.501Z,964.36
2023-05-17T07:32:46.532Z,964.35
2023-05-17T07:33:46.505Z,964.38
2023-05-17T07:34:46.524Z,964.27
2023-05-17T07:35:46.406Z,964.38
2023-05-17T07:36:46.364Z,964.31
2023-05-17T07:37:46.335Z,964.33
2023-05-17T07:38:46.306Z,964.35
2023-05-17T07:39:46.279Z,964.30
2023-05-17T07:40:46.251Z,964.31
2023-05-17T07:41:46.231Z,964.27
2023-05-17T07:42:46.205Z,964.24
2023-05-17T07:43:46.172Z,964.27
2023-05-17T07:44:46.142Z,964.30
2023-05-17T07:45:46.220Z,964.30
2023-05-17T07:46:46.124Z,964.25
2023-05-17T07:47:46.255Z,964.28
2023-05-17T07:48:46.136Z,964.25
2023-05-17T07:49:46.007Z,964.27
2023-05-17T07:50:45.981Z,964.28
2023-05-17T07:51:45.954Z,964.29
2023-05-17T07:52:45.931Z,964.33
2023-05-17T07:53:45.905Z,964.31
2023-05-17T07:54:45.887Z,964.31
2023-05-17T07:55:47.292Z,964.35
2023-05-17T07:56:45.817Z,964.34
2023-05-17T07:57:45.787Z,964.33
2023-05-17T07:58:45.790Z,964.33
2023-05-17T07:59:45.738Z,964.39
2023-05-17T08:00:45.739Z,964.32
2023-05-17T08:01:45.819Z,964.34
2023-05-17T08:02:45.865Z,964.40
2023-05-17T08:03:45.632Z,964.39
2023-05-17T08:04:45.611Z,964.39
2023-05-17T08:05:45.594Z,964.38
2023-05-17T08:06:45.550Z,964.37
2023-05-17T08:07:45.531Z,964.42
2023-05-17T08:08:45.506Z,964.36
2023-05-17T08:09:45.585Z,964.41
2023-05-17T08:10:45.437Z,964.37
2023-05-17T08:11:45.417Z,964.47
2023-05-17T08:12:45.387Z,964.44
2023-05-17T08:13:45.360Z,964.48
2023-05-17T08:14:45.334Z,964.45
2023-05-17T08:15:45.325Z,964.47
2023-05-17T08:16:45.279Z,964.51
2023-05-17T08:17:45.347Z,964.47
2023-05-17T08:18:45.408Z,964.49
2023-05-17T08:19:45.250Z,964.53
2023-05-17T08:20:45.173Z,964.57
2023-05-17T08:21:45.159Z,964.53
2023-05-17T08:22:45.121Z,964.54
2023-05-17T08:23:45.090Z,964.60
2023-05-17T08:24:45.070Z,964.52
2023-05-17T08:25:45.046Z,964.55
2023-05-17T08:26:45.019Z,964.60
2023-05-17T08:27:44.997Z,964.54
2023-05-17T08:28:44.960Z,964.50
2023-05-17T08:29:44.934Z,964.57
2023-05-17T08:30:44.918Z,964.54
2023-05-17T08:31:44.884Z,964.61
2023-05-17T08:32:44.977Z,964.54
2023-05-17T08:33:44.923Z,964.54
2023-05-17T08:34:44.872Z,964.55
2023-05-17T08:35:44.776Z,964.56
2023-05-17T08:36:44.861Z,964.54
2023-05-17T08:37:44.722Z,964.53
2023-05-17T08:38:44.708Z,964.58
2023-05-17T08:39:44.699Z,964.58
2023-05-17T08:40:44.643Z,964.61
2023-05-17T08:41:44.618Z,964.60
2023-05-17T08:42:44.591Z,964.64
2023-05-17T08:43:44.599Z,964.62
2023-05-17T08:44:44.550Z,964.70
2023-05-17T08:45:44.516Z,964.56
2023-05-17T08:46:44.484Z,964.61
2023-05-17T08:47:44.488Z,964.63
2023-05-17T08:48:44.486Z,964.62
2023-05-17T08:49:46.944Z,964.61
2023-05-17T08:50:44.384Z,964.59
2023-05-17T08:51:44.355Z,964.57
2023-05-17T08:52:44.416Z,964.67
2023-05-17T08:53:44.300Z,964.61
2023-05-17T08:54:44.271Z,964.60
2023-05-17T08:55:44.247Z,964.56
2023-05-17T08:56:44.219Z,964.57
2023-05-17T08:57:44.196Z,964.59
2023-05-17T08:58:55.634Z,964.53
2023-05-17T08:59:44.153Z,964.50
2023-05-17T09:00:44.111Z,964.54
2023-05-17T09:01:44.095Z,964.53
2023-05-17T09:02:44.193Z,964.56
2023-05-17T09:03:44.092Z,964.62
2023-05-17T09:04:44.148Z,964.58
2023-05-17T09:05:44.087Z,964.61
2023-05-17T09:06:43.956Z,964.63
2023-05-17T09:07:43.932Z,964.64
2023-05-17T09:08:43.904Z,964.66
2023-05-17T09:09:43.880Z,964.68
2023-05-17T09:10:43.865Z,964.62
2023-05-17T09:11:43.827Z,964.65
2023-05-17T09:12:43.799Z,964.67
2023-05-17T09:13:43.775Z,964.73
2023-05-17T09:14:43.752Z,964.69
2023-05-17T09:15:43.721Z,964.74
2023-05-17T09:16:43.694Z,964.72
2023-05-17T09:17:43.721Z,964.75
2023-05-17T09:18:43.737Z,964.74
2023-05-17T09:19:43.782Z,964.72
2023-05-17T09:20:43.586Z,964.82
2023-05-17T09:21:43.589Z,964.78
2023-05-17T09:22:43.537Z,964.73
2023-05-17T09:23:45.283Z,964.71
2023-05-17T09:24:43.486Z,964.67
2023-05-17T09:25:43.459Z,964.71
2023-05-17T09:26:43.430Z,964.66
2023-05-17T09:27:43.408Z,964.64
2023-05-17T09:28:43.380Z,964.62
2023-05-17T09:29:43.356Z,964.64
2023-05-17T09:30:43.358Z,964.66
2023-05-17T09:31:43.300Z,964.69
2023-05-17T09:32:43.329Z,964.64
2023-05-17T09:33:43.259Z,964.64
2023-05-17T09:34:43.225Z,964.70
2023-05-17T09:35:43.199Z,964.66
2023-05-17T09:36:43.177Z,964.68
2023-05-17T09:37:43.268Z,964.64
2023-05-17T09:38:43.131Z,964.65
2023-05-17T09:39:43.096Z,964.63
2023-05-17T09:40:43.074Z,964.64
2023-05-17T09:41:43.059Z,964.74
2023-05-17T09:42:43.017Z,964.64
2023-05-17T09:43:42.990Z,964.64
2023-05-17T09:44:42.959Z,964.71
2023-05-17T09:45:42.937Z,964.69
2023-05-17T09:46:42.923Z,964.69
2023-05-17T09:47:42.973Z,964.68
2023-05-17T09:48:42.897Z,964.75
2023-05-17T09:49:42.833Z,964.75
2023-05-17T09:50:42.806Z,964.80
2023-05-17T09:51:42.808Z,964.77
2023-05-17T09:52:42.753Z,964.76
2023-05-17T09:53:42.788Z,964.76
2023-05-17T09:54:42.700Z,964.78
2023-05-17T09:55:42.675Z,964.76
2023-05-17T09:56:42.646Z,964.73
2023-05-17T09:57:42.621Z,964.74
2023-05-17T09:58:42.600Z,964.71
2023-05-17T09:59:42.569Z,964.78
2023-05-17T10:00:42.543Z,964.76
2023-05-17T10:01:42.521Z,964.79
2023-05-17T10:02:42.627Z,964.84
2023-05-17T10:03:42.496Z,964.82
2023-05-17T10:04:42.459Z,964.88
2023-05-17T10:05:42.496Z,964.83
2023-05-17T10:06:46.513Z,964.82
2023-05-17T10:07:42.362Z,964.89
2023-05-17T10:08:42.330Z,964.85
2023-05-17T10:09:42.328Z,964.84
2023-05-17T10:10:42.282Z,964.79
2023-05-17T10:11:42.253Z,964.82
2023-05-17T10:12:42.228Z,964.77
2023-05-17T10:13:42.219Z,964.81
2023-05-17T10:14:42.193Z,964.80
2023-05-17T10:15:42.151Z,964.93
2023-05-17T10:16:42.140Z,964.86
2023-05-17T10:17:43.961Z,964.92
2023-05-17T10:18:42.239Z,964.85
2023-05-17T10:19:42.248Z,964.83
2023-05-17T10:20:42.036Z,964.82
2023-05-17T10:21:41.992Z,964.76
2023-05-17T10:22:41.970Z,964.79
2023-05-17T10:23:41.944Z,964.87
2023-05-17T10:24:41.918Z,964.81
2023-05-17T10:25:41.924Z,964.81
2023-05-17T10:26:41.870Z,964.80
2023-05-17T10:27:41.870Z,964.80
2023-05-17T10:28:41.819Z,964.77
2023-05-17T10:29:41.792Z,964.75
2023-05-17T10:30:41.765Z,964.73
2023-05-17T10:31:41.754Z,964.76
2023-05-17T10:32:41.880Z,964.76
2023-05-17T10:33:41.760Z,964.82
2023-05-17T10:34:41.665Z,964.78
2023-05-17T10:35:41.641Z,964.75
2023-05-17T10:36:41.628Z,964.79
2023-05-17T10:37:41.610Z,964.78
2023-05-17T10:38:42.847Z,964.84
2023-05-17T10:39:41.582Z,964.80
2023-05-17T10:40:41.514Z,964.82
2023-05-17T10:41:41.513Z,964.82
2023-05-17T10:42:41.468Z,964.79
2023-05-17T10:43:41.437Z,964.82
2023-05-17T10:44:41.411Z,964.76
2023-05-17T10:45:41.382Z,964.79
2023-05-17T10:46:41.362Z,964.78
2023-05-17T10:47:41.406Z,964.71
2023-05-17T10:48:41.352Z,964.66
2023-05-17T10:49:41.285Z,964.74
2023-05-17T10:50:54.068Z,964.79
2023-05-17T10:51:41.237Z,964.72
2023-05-17T10:52:41.211Z,964.71
2023-05-17T10:53:41.184Z,964.75
2023-05-17T10:54:41.158Z,964.75
2023-05-17T10:55:41.133Z,964.69
2023-05-17T10:56:41.122Z,964.71
2023-05-17T10:57:50.074Z,964.73
2023-05-17T10:58:41.068Z,964.72
2023-05-17T10:59:41.031Z,964.72
2023-05-17T11:00:41.011Z,964.70
2023-05-17T11:01:42.319Z,964.69
2023-05-17T11:02:40.984Z,964.65
2023-05-17T11:03:40.933Z,964.66
2023-05-17T11:04:40.962Z,964.62
2023-05-17T11:05:40.917Z,964.67
2023-05-17T11:06:40.966Z,964.63
2023-05-17T11:07:40.853Z,964.61
2023-05-17T11:08:40.806Z,964.57
2023-05-17T11:09:40.781Z,964.60
2023-05-17T11:10:40.760Z,964.56
2023-05-17T11:11:40.732Z,964.60
2023-05-17T11:12:40.916Z,964.67
2023-05-17T11:13:40.700Z,964.58
2023-05-17T11:14:40.657Z,964.61
2023-05-17T11:15:40.632Z,964.55
2023-05-17T11:16:40.606Z,964.59
2023-05-17T11:17:40.589Z,964.60
2023-05-17T11:18:42.189Z,964.58
2023-05-17T11:19:40.590Z,964.59
2023-05-17T11:20:40.773Z,964.65
2023-05-17T11:21:40.489Z,964.58
2023-05-17T11:22:40.461Z,964.55
2023-05-17T11:23:40.451Z,964.59
2023-05-17T11:24:40.408Z,964.63
2023-05-17T11:25:40.400Z,964.51
2023-05-17T11:26:40.364Z,964.51
2023-05-17T11:27:40.340Z,964.52
2023-05-17T11:28:40.307Z,964.51
2023-05-17T11:29:40.303Z,964.50
2023-05-17T11:30:40.367Z,964.49
2023-05-17T11:31:40.233Z,964.57
2023-05-17T11:32:40.320Z,964.51
2023-05-17T11:33:40.311Z,964.45
2023-05-17T11:34:40.347Z,964.48
2023-05-17T11:35:40.137Z,964.47
2023-05-17T11:36:40.112Z,964.49
2023-05-17T11:37:40.091Z,964.44
2023-05-17T11:38:40.069Z,964.43
2023-05-17T11:39:40.050Z,964.40
2023-05-17T11:40:40.020Z,964.41
2023-05-17T11:41:39.989Z,964.49
2023-05-17T11:42:39.962Z,964.50
2023-05-17T11:43:39.943Z,964.45
2023-05-17T11:44:39.917Z,964.51
2023-05-17T11:45:39.918Z,964.47
2023-05-17T11:46:39.865Z,964.43
2023-05-17T11:47:39.988Z,964.47
2023-05-17T11:48:39.850Z,964.45
2023-05-17T11:49:39.787Z,964.44
2023-05-17T11:50:39.763Z,964.46
2023-05-17T11:51:39.741Z,964.42
2023-05-17T11:52:39.713Z,964.46
2023-05-17T11:53:39.687Z,964.44
2023-05-17T11:54:39.664Z,964.48
2023-05-17T11:55:39.637Z,964.53
2023-05-17T11:56:43.125Z,964.51
2023-05-17T11:57:40.699Z,964.51
2023-05-17T11:58:39.568Z,964.58
2023-05-17T11:59:39.543Z,964.55
2023-05-17T12:00:39.516Z,964.60
2023-05-17T12:01:39.667Z,964.62
2023-05-17T12:02:39.607Z,964.56
2023-05-17T12:03:39.440Z,964.49
2023-05-17T12:04:39.590Z,964.43
2023-05-17T12:05:39.390Z,964.41
2023-05-17T12:06:39.570Z,964.47
2023-05-17T12:07:39.345Z,964.48
2023-05-17T12:08:39.316Z,964.50
2023-05-17T12:09:39.317Z,964.56
2023-05-17T12:10:39.269Z,964.49
2023-05-17T12:11:39.252Z,964.50
2023-05-17T12:12:39.221Z,964.52
2023-05-17T12:13:39.198Z,964.51
2023-05-17T12:14:39.194Z,964.52
2023-05-17T12:15:39.165Z,964.53
2023-05-17T12:16:39.124Z,964.47
2023-05-17T12:17:39.254Z,964.49
2023-05-17T12:18:39.222Z,964.46
2023-05-17T12:19:39.193Z,964.51
2023-05-17T12:20:39.042Z,964.44
2023-05-17T12:21:39.004Z,964.46
2023-05-17T12:22:38.982Z,964.45
2023-05-17T12:23:38.955Z,964.44
2023-05-17T12:24:38.978Z,964.45
2023-05-17T12:25:38.920Z,964.46
2023-05-17T12:26:38.894Z,964.47
2023-05-17T12:27:38.865Z,964.47
2023-05-17T12:28:38.837Z,964.42
2023-05-17T12:29:38.818Z,964.46